createdAt,value
2023-03-18T00:01:38.190Z,-2.18
2023-03-18T00:04:07.809Z,-2.21
2023-03-18T00:06:38.896Z,-2.23
2023-03-18T00:09:08.288Z,-2.24
2023-03-18T00:11:38.001Z,-2.24
2023-03-18T00:14:07.357Z,-2.26
2023-03-18T00:16:37.251Z,-2.28
2023-03-18T00:19:07.309Z,-2.34
2023-03-18T00:21:36.310Z,-2.42
2023-03-18T00:24:05.406Z,-2.53
2023-03-18T00:26:34.715Z,-2.63
2023-03-18T00:29:04.314Z,-2.72
2023-03-18T00:31:34.267Z,-2.80
2023-03-18T00:34:03.218Z,-2.85
2023-03-18T00:36:33.255Z,-2.89
2023-03-18T00:39:06.001Z,-2.94
2023-03-18T00:41:38.724Z,-2.96
2023-03-18T00:44:08.926Z,-2.98
2023-03-18T00:46:38.966Z,-3.00
2023-03-18T00:49:09.379Z,-3.01
2023-03-18T00:51:38.667Z,-2.99
2023-03-18T00:54:08.678Z,-2.96
2023-03-18T00:56:40.944Z,-2.95
2023-03-18T00:59:11.594Z,-2.97
2023-03-18T01:01:42.246Z,-3.01
2023-03-18T01:04:12.345Z,-3.06
2023-03-18T01:06:41.841Z,-3.09
2023-03-18T01:09:12.249Z,-3.13
2023-03-18T01:11:41.670Z,-3.17
2023-03-18T01:14:11.823Z,-3.21
2023-03-18T01:16:41.876Z,-3.26
2023-03-18T01:19:13.515Z,-3.30
2023-03-18T01:21:43.771Z,-3.36
2023-03-18T01:24:14.441Z,-3.42
2023-03-18T01:26:46.131Z,-3.47
2023-03-18T01:29:17.026Z,-3.50
2023-03-18T01:31:47.586Z,-3.55
2023-03-18T01:34:18.083Z,-3.61
2023-03-18T01:36:53.427Z,-3.67
2023-03-18T01:39:24.761Z,-3.68
2023-03-18T01:41:54.409Z,-3.68
2023-03-18T01:44:31.447Z,-3.65
2023-03-18T01:47:01.951Z,-3.61
2023-03-18T01:49:34.577Z,-3.58
2023-03-18T01:52:12.057Z,-3.56
2023-03-18T01:54:44.365Z,-3.55
2023-03-18T01:57:15.211Z,-3.55
2023-03-18T01:59:46.822Z,-3.56
2023-03-18T02:02:18.059Z,-3.59
2023-03-18T02:04:51.973Z,-3.64
2023-03-18T02:07:25.511Z,-3.70
2023-03-18T02:09:58.953Z,-3.76
2023-03-18T02:12:34.031Z,-3.81
2023-03-18T02:15:06.659Z,-3.87
2023-03-18T02:17:37.860Z,-3.91
2023-03-18T02:20:26.492Z,-3.96
2023-03-18T02:23:01.049Z,-4.03
2023-03-18T02:25:45.163Z,-4.07
2023-03-18T02:28:19.436Z,-4.10
2023-03-18T02:30:52.505Z,-4.12
2023-03-18T02:33:23.500Z,-4.10
2023-03-18T02:35:56.532Z,-4.08
2023-03-18T02:38:27.827Z,-4.07
2023-03-18T02:40:58.403Z,-4.07
2023-03-18T02:43:33.977Z,-4.10
2023-03-18T02:46:39.481Z,-4.14
2023-03-18T02:49:11.943Z,-4.19
2023-03-18T02:51:42.529Z,-4.23
2023-03-18T02:54:14.684Z,-4.23
2023-03-18T02:56:44.796Z,-4.24
2023-03-18T02:59:15.197Z,-4.26
2023-03-18T03:01:46.237Z,-4.29
2023-03-18T03:04:17.357Z,-4.33
2023-03-18T03:06:47.072Z,-4.37
2023-03-18T03:09:17.871Z,-4.40
2023-03-18T03:11:48.893Z,-4.42
2023-03-18T03:14:24.722Z,-4.44
2023-03-18T03:16:56.814Z,-4.48
2023-03-18T03:19:27.119Z,-4.53
2023-03-18T03:21:58.202Z,-4.57
2023-03-18T03:24:28.647Z,-4.60
2023-03-18T03:26:58.555Z,-4.63
2023-03-18T03:29:28.461Z,-4.68
2023-03-18T03:31:58.731Z,-4.71
2023-03-18T03:34:28.182Z,-4.75
2023-03-18T03:36:57.864Z,-4.78
2023-03-18T03:39:28.679Z,-4.80
2023-03-18T03:41:58.375Z,-4.83
2023-03-18T03:44:28.429Z,-4.85
2023-03-18T03:46:58.037Z,-4.87
2023-03-18T03:49:27.627Z,-4.88
2023-03-18T03:51:57.502Z,-4.92
2023-03-18T03:54:27.599Z,-4.94
2023-03-18T03:56:57.975Z,-4.96
2023-03-18T03:59:28.057Z,-4.99
2023-03-18T04:02:11.776Z,-5.03
2023-03-18T04:04:40.769Z,-5.05
2023-03-18T04:07:11.061Z,-5.07
2023-03-18T04:09:41.675Z,-5.08
2023-03-18T04:12:12.557Z,-5.08
2023-03-18T04:14:42.760Z,-5.04
2023-03-18T04:17:14.246Z,-5.01
2023-03-18T04:19:43.854Z,-4.98
2023-03-18T04:22:13.141Z,-4.96
2023-03-18T04:24:42.929Z,-4.96
2023-03-18T04:27:12.048Z,-4.97
2023-03-18T04:29:41.460Z,-4.98
2023-03-18T04:32:10.912Z,-5.00
2023-03-18T04:34:40.631Z,-5.02
2023-03-18T04:37:10.683Z,-5.04
2023-03-18T04:39:39.785Z,-5.04
2023-03-18T04:42:12.944Z,-5.05
2023-03-18T04:44:41.900Z,-5.07
2023-03-18T04:47:11.079Z,-5.06
2023-03-18T04:49:41.088Z,-5.07
2023-03-18T04:52:09.953Z,-5.06
2023-03-18T04:54:39.926Z,-5.04
2023-03-18T04:57:08.644Z,-5.00
2023-03-18T04:59:41.033Z,-4.95
2023-03-18T05:02:10.222Z,-4.86
2023-03-18T05:04:39.249Z,-4.72
2023-03-18T05:07:08.999Z,-4.51
2023-03-18T05:09:39.656Z,-4.26
2023-03-18T05:12:13.728Z,-3.94
2023-03-18T05:14:43.601Z,-3.59
2023-03-18T05:17:16.167Z,-3.25
2023-03-18T05:19:52.133Z,-2.94
2023-03-18T05:22:23.575Z,-2.70
2023-03-18T05:24:57.800Z,-2.48
2023-03-18T05:27:28.925Z,-2.26
2023-03-18T05:30:02.535Z,-2.09
2023-03-18T05:32:39.323Z,-1.87
2023-03-18T05:35:09.724Z,-1.65
2023-03-18T05:37:46.615Z,-1.33
2023-03-18T05:40:16.609Z,-1.00
2023-03-18T05:42:56.577Z,-0.68
2023-03-18T05:45:34.927Z,-0.30
2023-03-18T05:48:07.328Z,-0.05
2023-03-18T05:50:42.967Z,0.22
2023-03-18T05:53:16.602Z,0.59
2023-03-18T05:55:46.110Z,0.99
2023-03-18T05:58:15.307Z,1.14
2023-03-18T06:00:44.505Z,1.40
2023-03-18T06:03:13.342Z,1.48
2023-03-18T06:05:42.593Z,1.65
2023-03-18T06:08:11.498Z,1.81
2023-03-18T06:10:40.686Z,1.97
2023-03-18T06:13:11.318Z,2.28
2023-03-18T06:15:40.314Z,2.74
2023-03-18T06:18:09.843Z,3.11
2023-03-18T06:20:38.848Z,3.32
2023-03-18T06:23:07.994Z,3.49
2023-03-18T06:25:36.877Z,3.74
2023-03-18T06:28:05.580Z,3.86
2023-03-18T06:30:36.002Z,3.80
2023-03-18T06:33:05.138Z,3.96
2023-03-18T06:35:34.075Z,4.39
2023-03-18T06:38:03.526Z,4.39
2023-03-18T06:40:33.305Z,4.92
2023-03-18T06:43:01.785Z,5.12
2023-03-18T06:45:41.626Z,5.35
2023-03-18T06:48:10.744Z,5.47
2023-03-18T06:50:42.733Z,5.52
2023-03-18T06:53:16.595Z,5.71
2023-03-18T06:55:45.693Z,5.62
2023-03-18T06:58:15.895Z,5.96
2023-03-18T07:01:00.833Z,6.17
2023-03-18T07:03:33.251Z,6.35
2023-03-18T07:06:02.871Z,6.66
2023-03-18T07:08:31.755Z,6.71
2023-03-18T07:11:01.253Z,7.27
2023-03-18T07:13:30.349Z,7.41
2023-03-18T07:15:59.362Z,7.37
2023-03-18T07:18:28.540Z,7.10
2023-03-18T07:20:57.060Z,7.36
2023-03-18T07:23:25.805Z,7.75
2023-03-18T07:25:55.008Z,7.91
2023-03-18T07:28:23.588Z,8.13
2023-03-18T07:30:54.157Z,8.19
2023-03-18T07:33:22.811Z,8.49
2023-03-18T07:35:51.437Z,8.29
2023-03-18T07:38:20.194Z,8.54
2023-03-18T07:40:48.651Z,9.06
2023-03-18T07:43:17.750Z,9.57
2023-03-18T07:45:46.234Z,10.10
2023-03-18T07:48:15.447Z,10.61
2023-03-18T07:50:43.914Z,10.60
2023-03-18T07:53:14.071Z,10.15
2023-03-18T07:55:44.929Z,10.89
2023-03-18T07:58:13.972Z,10.86
2023-03-18T08:00:43.263Z,10.59
2023-03-18T08:03:12.348Z,10.78
2023-03-18T08:05:41.445Z,11.29
2023-03-18T08:08:10.245Z,11.67
2023-03-18T08:10:39.021Z,12.08
2023-03-18T08:13:07.816Z,12.16
2023-03-18T08:15:36.719Z,12.47
2023-03-18T08:18:08.385Z,12.96
2023-03-18T08:20:38.589Z,13.44
2023-03-18T08:23:07.266Z,13.90
2023-03-18T08:25:36.310Z,14.07
2023-03-18T08:28:07.831Z,14.00
2023-03-18T08:30:38.746Z,13.54
2023-03-18T08:33:07.562Z,13.45
2023-03-18T08:35:36.289Z,13.58
2023-03-18T08:38:05.115Z,14.12
2023-03-18T08:40:35.440Z,13.56
2023-03-18T08:43:05.458Z,13.61
2023-03-18T08:45:34.422Z,13.95
2023-03-18T08:48:03.342Z,14.12
2023-03-18T08:50:32.534Z,13.57
2023-03-18T08:53:01.134Z,12.94
2023-03-18T08:55:32.319Z,14.02
2023-03-18T08:58:01.558Z,14.13
2023-03-18T09:00:30.671Z,14.52
2023-03-18T09:02:59.363Z,15.60
2023-03-18T09:05:27.829Z,16.05
2023-03-18T09:07:56.964Z,15.88
2023-03-18T09:10:26.310Z,16.20
2023-03-18T09:12:55.112Z,16.52
2023-03-18T09:15:23.907Z,16.68
2023-03-18T09:18:09.949Z,16.98
2023-03-18T09:20:40.519Z,16.84
2023-03-18T09:23:10.258Z,16.46
2023-03-18T09:25:39.227Z,16.06
2023-03-18T09:28:08.016Z,15.96
2023-03-18T09:30:37.199Z,16.36
2023-03-18T09:33:09.656Z,17.03
2023-03-18T09:35:38.919Z,17.19
2023-03-18T09:38:07.873Z,17.37
2023-03-18T09:40:38.608Z,17.37
2023-03-18T09:43:10.474Z,17.49
2023-03-18T09:45:51.304Z,17.69
2023-03-18T09:48:23.707Z,17.10
2023-03-18T09:50:52.902Z,16.80
2023-03-18T09:53:24.361Z,16.74
2023-03-18T09:55:57.442Z,16.23
2023-03-18T09:58:32.077Z,16.26
2023-03-18T10:01:02.436Z,16.32
2023-03-18T10:03:44.315Z,16.35
2023-03-18T10:06:17.173Z,16.38
2023-03-18T10:08:54.663Z,16.62
2023-03-18T10:11:29.289Z,16.99
2023-03-18T10:14:09.240Z,16.92
2023-03-18T10:17:01.280Z,17.53
2023-03-18T10:19:29.849Z,17.72
2023-03-18T10:22:01.615Z,17.77
2023-03-18T10:24:36.250Z,18.25
2023-03-18T10:27:05.128Z,17.68
2023-03-18T10:29:42.824Z,17.56
2023-03-18T10:32:11.299Z,16.93
2023-03-18T10:34:46.338Z,16.89
2023-03-18T10:37:24.140Z,16.74
2023-03-18T10:39:53.443Z,16.58
2023-03-18T10:42:25.411Z,16.14
2023-03-18T10:44:55.828Z,16.46
2023-03-18T10:47:34.299Z,16.72
2023-03-18T10:50:06.716Z,17.14
2023-03-18T10:52:38.479Z,17.56
2023-03-18T10:55:14.846Z,17.75
2023-03-18T10:57:43.336Z,17.30
2023-03-18T11:00:26.884Z,16.84
2023-03-18T11:02:57.336Z,15.69
2023-03-18T11:05:30.187Z,15.79
2023-03-18T11:08:00.293Z,15.95
2023-03-18T11:10:31.785Z,16.20
2023-03-18T11:13:02.715Z,16.63
2023-03-18T11:15:36.905Z,16.46
2023-03-18T11:18:06.292Z,16.44
2023-03-18T11:20:43.377Z,16.57
2023-03-18T11:23:18.208Z,16.53
2023-03-18T11:25:47.713Z,16.58
2023-03-18T11:28:22.131Z,17.45
2023-03-18T11:30:56.493Z,17.99
2023-03-18T11:33:27.284Z,18.17
2023-03-18T11:35:58.856Z,18.61
2023-03-18T11:38:28.936Z,18.98
2023-03-18T11:41:19.860Z,18.61
2023-03-18T11:44:01.242Z,18.41
2023-03-18T11:46:39.029Z,18.70
2023-03-18T11:49:13.567Z,17.34
2023-03-18T11:51:42.456Z,17.90
2023-03-18T11:54:11.043Z,17.73
2023-03-18T11:56:39.616Z,17.20
2023-03-18T11:59:28.237Z,17.86
2023-03-18T12:02:12.357Z,17.89
2023-03-18T12:04:59.697Z,18.27
2023-03-18T12:07:38.348Z,18.40
2023-03-18T12:10:18.516Z,18.62
2023-03-18T12:12:54.288Z,18.31
2023-03-18T12:15:47.450Z,18.67
2023-03-18T12:18:34.438Z,18.64
2023-03-18T12:21:12.035Z,18.40
2023-03-18T12:23:41.652Z,18.87
2023-03-18T12:26:36.560Z,18.85
2023-03-18T12:29:23.969Z,18.67
2023-03-18T12:31:58.830Z,18.78
2023-03-18T12:34:42.136Z,18.86
2023-03-18T12:37:16.453Z,19.21
2023-03-18T12:40:05.109Z,18.90
2023-03-18T12:42:33.488Z,18.83
2023-03-18T12:45:10.770Z,18.72
2023-03-18T12:47:42.533Z,18.96
2023-03-18T12:50:32.816Z,18.99
2023-03-18T12:53:02.121Z,19.88
2023-03-18T12:55:33.280Z,19.62
2023-03-18T12:58:14.642Z,19.93
2023-03-18T13:00:48.253Z,19.86
2023-03-18T13:03:16.728Z,19.96
2023-03-18T13:05:45.918Z,20.05
2023-03-18T13:08:17.266Z,20.12
2023-03-18T13:10:50.458Z,20.17
2023-03-18T13:13:19.463Z,20.37
2023-03-18T13:15:51.727Z,19.72
2023-03-18T13:18:40.471Z,19.57
2023-03-18T13:21:14.079Z,19.57
2023-03-18T13:23:42.866Z,19.40
2023-03-18T13:26:25.587Z,19.59
2023-03-18T13:29:04.792Z,19.96
2023-03-18T13:31:48.137Z,20.33
2023-03-18T13:34:37.406Z,20.43
2023-03-18T13:37:06.503Z,20.13
2023-03-18T13:39:50.037Z,20.18
2023-03-18T13:42:27.539Z,20.47
2023-03-18T13:44:56.211Z,20.64
2023-03-18T13:47:28.942Z,20.51
2023-03-18T13:50:16.419Z,20.67
2023-03-18T13:52:46.229Z,20.99
2023-03-18T13:55:34.995Z,20.81
2023-03-18T13:58:09.820Z,20.90
2023-03-18T14:00:40.714Z,20.47
2023-03-18T14:03:22.130Z,20.69
2023-03-18T14:05:51.975Z,20.89
2023-03-18T14:08:38.886Z,21.17
2023-03-18T14:11:28.860Z,20.63
2023-03-18T14:14:06.343Z,20.01
2023-03-18T14:16:36.276Z,19.93
2023-03-18T14:19:19.584Z,19.89
2023-03-18T14:21:53.155Z,19.58
2023-03-18T14:24:22.293Z,19.21
2023-03-18T14:27:05.609Z,19.29
2023-03-18T14:29:37.395Z,18.74
2023-03-18T14:32:08.721Z,18.09
2023-03-18T14:34:56.868Z,17.98
2023-03-18T14:37:29.642Z,17.85
2023-03-18T14:40:05.020Z,17.71
2023-03-18T14:42:42.528Z,17.60
2023-03-18T14:45:29.801Z,17.01
2023-03-18T14:48:00.127Z,15.98
2023-03-18T14:50:34.752Z,15.39
2023-03-18T14:53:06.626Z,15.37
2023-03-18T14:55:36.726Z,15.44
2023-03-18T14:58:05.718Z,15.32
2023-03-18T15:00:35.830Z,15.02
2023-03-18T15:03:07.321Z,14.76
2023-03-18T15:05:38.219Z,15.26
2023-03-18T15:08:09.482Z,15.82
2023-03-18T15:10:38.883Z,16.14
2023-03-18T15:13:11.962Z,16.47
2023-03-18T15:15:41.871Z,16.23
2023-03-18T15:18:17.317Z,16.18
2023-03-18T15:20:47.949Z,16.50
2023-03-18T15:23:17.866Z,16.13
2023-03-18T15:25:49.827Z,15.63
2023-03-18T15:28:19.957Z,15.57
2023-03-18T15:30:54.980Z,15.89
2023-03-18T15:33:44.253Z,15.77
2023-03-18T15:36:16.933Z,14.61
2023-03-18T15:38:49.243Z,13.70
2023-03-18T15:41:21.857Z,13.24
2023-03-18T15:43:52.109Z,12.77
2023-03-18T15:46:26.190Z,12.25
2023-03-18T15:48:56.243Z,11.80
2023-03-18T15:51:27.177Z,11.69
2023-03-18T15:53:58.191Z,11.42
2023-03-18T15:56:26.792Z,11.20
2023-03-18T15:59:02.754Z,11.08
2023-03-18T16:01:31.408Z,10.96
2023-03-18T16:04:00.835Z,10.85
2023-03-18T16:06:29.329Z,10.70
2023-03-18T16:08:57.909Z,10.51
2023-03-18T16:11:26.380Z,10.32
2023-03-18T16:13:55.388Z,10.16
2023-03-18T16:16:28.456Z,9.99
2023-03-18T16:18:58.275Z,9.84
2023-03-18T16:21:27.577Z,9.73
2023-03-18T16:23:56.055Z,9.64
2023-03-18T16:26:24.645Z,9.56
2023-03-18T16:28:53.543Z,9.46
2023-03-18T16:31:22.558Z,9.33
2023-03-18T16:33:53.150Z,9.14
2023-03-18T16:36:35.027Z,8.95
2023-03-18T16:39:14.177Z,8.70
2023-03-18T16:41:42.862Z,8.45
2023-03-18T16:44:12.563Z,8.19
2023-03-18T16:46:41.871Z,8.01
2023-03-18T16:49:14.238Z,7.85
2023-03-18T16:51:42.724Z,7.68
2023-03-18T16:54:18.592Z,7.51
2023-03-18T16:56:49.034Z,7.35
2023-03-18T16:59:18.302Z,7.21
2023-03-18T17:01:46.783Z,7.09
2023-03-18T17:04:35.789Z,7.00
2023-03-18T17:07:05.055Z,6.89
2023-03-18T17:09:33.425Z,6.80
2023-03-18T17:12:05.006Z,6.72
2023-03-18T17:14:38.989Z,6.63
2023-03-18T17:17:12.283Z,6.56
2023-03-18T17:19:41.578Z,6.50
2023-03-18T17:22:21.083Z,6.46
2023-03-18T17:24:50.321Z,6.44
2023-03-18T17:27:20.444Z,6.41
2023-03-18T17:29:49.850Z,6.37
2023-03-18T17:32:19.791Z,6.32
2023-03-18T17:34:52.027Z,6.26
2023-03-18T17:37:21.247Z,6.19
2023-03-18T17:39:49.986Z,6.12
2023-03-18T17:42:29.956Z,6.05
2023-03-18T17:45:01.818Z,5.97
2023-03-18T17:47:30.194Z,5.90
2023-03-18T17:49:59.088Z,5.84
2023-03-18T17:52:30.024Z,5.91
2023-03-18T17:54:58.397Z,5.99
2023-03-18T17:57:27.392Z,6.00
2023-03-18T17:59:58.039Z,5.94
2023-03-18T18:02:26.520Z,5.96
2023-03-18T18:04:55.087Z,5.91
2023-03-18T18:07:23.981Z,5.86
2023-03-18T18:09:53.076Z,5.79
2023-03-18T18:12:23.312Z,5.69
2023-03-18T18:14:52.095Z,5.56
2023-03-18T18:17:21.125Z,5.44
2023-03-18T18:19:49.656Z,5.43
2023-03-18T18:22:21.110Z,5.46
2023-03-18T18:24:50.507Z,5.39
2023-03-18T18:27:18.928Z,5.31
2023-03-18T18:29:48.400Z,5.22
2023-03-18T18:32:17.293Z,5.13
2023-03-18T18:34:46.995Z,5.09
2023-03-18T18:37:15.488Z,5.00
2023-03-18T18:39:44.066Z,4.89
2023-03-18T18:42:12.752Z,4.78
2023-03-18T18:44:41.074Z,4.69
2023-03-18T18:47:20.184Z,4.58
2023-03-18T18:49:48.629Z,4.47
2023-03-18T18:52:17.316Z,4.35
2023-03-18T18:54:45.712Z,4.24
2023-03-18T18:57:32.097Z,4.14
2023-03-18T19:00:00.666Z,4.03
2023-03-18T19:02:30.564Z,3.96
2023-03-18T19:05:00.310Z,3.89
2023-03-18T19:07:29.813Z,3.82
2023-03-18T19:09:58.496Z,3.77
2023-03-18T19:12:27.902Z,3.71
2023-03-18T19:14:56.792Z,3.65
2023-03-18T19:17:25.903Z,3.57
2023-03-18T19:19:54.990Z,3.49
2023-03-18T19:22:24.495Z,3.42
2023-03-18T19:24:53.271Z,3.37
2023-03-18T19:27:24.632Z,3.34
2023-03-18T19:29:54.132Z,3.31
2023-03-18T19:32:23.530Z,3.28
2023-03-18T19:34:53.243Z,3.25
2023-03-18T19:37:41.478Z,3.23
2023-03-18T19:40:21.328Z,3.20
2023-03-18T19:42:49.809Z,3.19
2023-03-18T19:45:18.801Z,3.18
2023-03-18T19:47:47.133Z,3.14
2023-03-18T19:50:17.603Z,3.10
2023-03-18T19:52:46.319Z,3.04
2023-03-18T19:55:16.037Z,2.98
2023-03-18T19:57:45.510Z,2.92
2023-03-18T20:00:22.264Z,2.88
2023-03-18T20:02:51.304Z,2.85
2023-03-18T20:05:21.108Z,2.83
2023-03-18T20:07:50.779Z,2.78
2023-03-18T20:10:19.886Z,2.73
2023-03-18T20:12:49.389Z,2.69
2023-03-18T20:15:20.538Z,2.68
2023-03-18T20:17:49.942Z,2.71
2023-03-18T20:20:19.961Z,2.72
2023-03-18T20:22:53.464Z,2.68
2023-03-18T20:25:28.697Z,2.61
2023-03-18T20:27:58.256Z,2.53
2023-03-18T20:30:27.090Z,2.47
2023-03-18T20:32:56.429Z,2.42
2023-03-18T20:35:26.200Z,2.38
2023-03-18T20:37:55.303Z,2.33
2023-03-18T20:40:25.014Z,2.28
2023-03-18T20:42:53.393Z,2.23
2023-03-18T20:45:23.001Z,2.18
2023-03-18T20:47:51.474Z,2.15
2023-03-18T20:50:21.489Z,2.13
2023-03-18T20:52:50.998Z,2.09
2023-03-18T20:55:21.433Z,2.07
2023-03-18T20:57:50.216Z,2.05
2023-03-18T21:00:20.931Z,2.02
2023-03-18T21:02:50.259Z,2.00
2023-03-18T21:05:19.954Z,1.98
2023-03-18T21:07:49.045Z,1.97
2023-03-18T21:10:19.335Z,1.95
2023-03-18T21:12:48.474Z,1.91
2023-03-18T21:15:24.739Z,1.86
2023-03-18T21:17:54.265Z,1.82
2023-03-18T21:20:26.819Z,1.78
2023-03-18T21:22:56.686Z,1.74
2023-03-18T21:25:26.543Z,1.73
2023-03-18T21:27:55.433Z,1.68
2023-03-18T21:30:24.109Z,1.64
2023-03-18T21:32:52.857Z,1.59
2023-03-18T21:35:23.534Z,1.56
2023-03-18T21:37:52.941Z,1.52
2023-03-18T21:40:25.414Z,1.48
2023-03-18T21:42:54.095Z,1.44
2023-03-18T21:45:24.007Z,1.39
2023-03-18T21:47:53.174Z,1.36
2023-03-18T21:50:22.709Z,1.33
2023-03-18T21:52:52.322Z,1.28
2023-03-18T21:55:21.426Z,1.23
2023-03-18T21:57:50.117Z,1.19
2023-03-18T22:00:22.783Z,1.17
2023-03-18T22:02:51.882Z,1.16
2023-03-18T22:05:22.029Z,1.13
2023-03-18T22:07:51.297Z,1.10
2023-03-18T22:10:23.488Z,1.04
2023-03-18T22:12:52.057Z,1.00
2023-03-18T22:15:34.506Z,0.98
2023-03-18T22:18:03.923Z,0.97
2023-03-18T22:20:35.452Z,0.92
2023-03-18T22:23:16.570Z,0.87
2023-03-18T22:25:46.510Z,0.81
2023-03-18T22:28:15.621Z,0.74
2023-03-18T22:30:46.762Z,0.69
2023-03-18T22:33:19.942Z,0.66
2023-03-18T22:35:49.227Z,0.62
2023-03-18T22:38:19.362Z,0.59
2023-03-18T22:40:49.982Z,0.55
2023-03-18T22:43:18.462Z,0.46
2023-03-18T22:45:46.950Z,0.34
2023-03-18T22:48:18.805Z,0.23
2023-03-18T22:50:47.383Z,0.15
2023-03-18T22:53:23.859Z,0.07
2023-03-18T22:55:54.214Z,-0.01
2023-03-18T22:58:24.914Z,-0.07
2023-03-18T23:00:54.176Z,-0.12
2023-03-18T23:03:23.125Z,-0.16
2023-03-18T23:05:54.453Z,-0.16
2023-03-18T23:08:23.457Z,-0.18
2023-03-18T23:10:53.795Z,-0.19
2023-03-18T23:13:30.847Z,-0.22
2023-03-18T23:15:59.573Z,-0.25
2023-03-18T23:18:29.802Z,-0.27
2023-03-18T23:20:58.573Z,-0.30
2023-03-18T23:23:28.778Z,-0.35
2023-03-18T23:25:58.168Z,-0.37
2023-03-18T23:28:26.854Z,-0.41
2023-03-18T23:30:56.355Z,-0.46
2023-03-18T23:33:24.949Z,-0.51
2023-03-18T23:35:54.390Z,-0.52
2023-03-18T23:38:23.201Z,-0.55
2023-03-18T23:40:52.544Z,-0.58
2023-03-18T23:43:21.843Z,-0.62
2023-03-18T23:45:50.969Z,-0.66
2023-03-18T23:48:19.519Z,-0.69
2023-03-18T23:50:48.832Z,-0.70
2023-03-18T23:53:18.016Z,-0.72
2023-03-18T23:55:49.339Z,-0.76
2023-03-18T23:58:18.865Z,-0.73
